Flight Track Log - Related Links

Times and Time Zones

All times are in EST time to prevent confusion due to time zone crossing. See the N27XP flight status page for this flight to view local times or setup timezone preferences in your user account.

Time Position Orientation Groundspeed Altitude Reporting Facility
EST Latitude Longitude Course Direction KTS MPH feet Rate Location/Type
Tue 10:33:38 PM 35.0081 -79.5403 206° Southwest 276 318 12,600  Level Washington Center
Tue 10:34:38 PM 34.9333 -79.5847 206° Southwest 288 331 14,500 1,983 Climbing Washington Center
Tue 10:35:36 PM 34.8483 -79.6361 206° Southwest 310 357 16,500 2,096 Climbing Washington Center
Tue 10:36:00 PM 34.7984 -79.6087 195° South  Level Estimated
Tue 10:37:00 PM 34.7252 -79.6451 208° Southwest  Level Estimated
Tue 10:37:24 PM 34.6875 -79.7264 205° Southwest 331 381 20,300  Level Jacksonville Center
Tue 10:38:24 PM 34.6117 -79.7772 209° Southwest 331 381 22,500 1,850 Climbing Jacksonville Center
Tue 10:39:24 PM 34.5314 -79.8253 206° Southwest 331 381 24,000 750 Climbing Jacksonville Center
Tue 10:40:24 PM 34.4572 -79.8658 204° Southwest 322 371 24,000  Level Jacksonville Center
Tue 10:41:24 PM 34.3628 -79.9244 207° Southwest 354 407 24,000 200 Level Jacksonville Center
Tue 10:42:24 PM 34.2639 -79.9831 206° Southwest 376 433 24,400 900 Climbing Jacksonville Center
Tue 10:43:24 PM 34.1692 -80.0389 206° Southwest 383 441 25,800 1,450 Climbing Jacksonville Center
Tue 10:44:24 PM 34.0767 -80.0922 206° Southwest 383 441 27,300 1,100 Climbing Jacksonville Center
Tue 10:45:24 PM 33.9900 -80.1450 207° Southwest 365 420 28,000 900 Climbing Jacksonville Center
Tue 10:46:24 PM 33.9014 -80.1953 205° Southwest 359 413 29,100 1,000 Climbing Jacksonville Center
Tue 10:47:24 PM 33.8192 -80.2453 207° Southwest 349 402 30,000 992 Climbing Jacksonville Center
Tue 10:48:25 PM 33.7344 -80.2928 205° Southwest 339 390 31,100 1,050 Climbing Jacksonville Center
Tue 10:49:24 PM 33.6583 -80.3400 207° Southwest 326 375 32,100 1,008 Climbing Jacksonville Center
Tue 10:50:24 PM 33.5800 -80.3869 207° Southwest 321 369 33,100 950 Climbing Jacksonville Center
Tue 10:51:24 PM 33.5036 -80.4292 205° Southwest 316 364 34,000 150 Climbing Jacksonville Center
Tue 10:52:24 PM 33.4211 -80.4786 207° Southwest 321 369 33,400 -900 Descending Jacksonville Center
Tue 10:53:24 PM 33.3342 -80.5283 206° Southwest 327 376 32,200 -1,150 Descending Jacksonville Center
Tue 10:54:24 PM 33.2475 -80.5778 206° Southwest 343 395 31,100 -1,050 Descending Jacksonville Center
Tue 10:55:24 PM 33.1608 -80.6272 206° Southwest 343 395 30,100 -900 Descending Jacksonville Center
Tue 10:56:24 PM 33.0697 -80.6789 205° Southwest 343 395 29,300 -850 Descending Jacksonville Center
Tue 10:57:24 PM 32.9811 -80.7308 206° Southwest 355 409 28,400 -850 Descending Jacksonville Center
Tue 10:58:24 PM 32.8900 -80.7800 204° Southwest 355 409 27,600 -1,000 Descending Jacksonville Center
Tue 10:59:24 PM 32.7886 -80.8392 206° Southwest 360 414 26,400 -800 Descending Jacksonville Center
Tue 11:00:24 PM 32.6978 -80.8906 205° Southwest 360 414 26,000 -200 Descending Jacksonville Center
Tue 11:01:24 PM 32.6067 -80.9419 205° Southwest 360 414 26,000  Level Jacksonville Center
Tue 11:02:24 PM 32.5175 -80.9906 205° Southwest 360 414 26,000  Level Jacksonville Center
Tue 11:03:24 PM 32.4267 -81.0442 206° Southwest 359 413 26,000  Level Jacksonville Center
Tue 11:04:24 PM 32.3333 -81.0953 205° Southwest 372 428 26,000  Level Jacksonville Center
Tue 11:05:24 PM 32.2381 -81.1486 205° Southwest 382 440 26,000  Level Jacksonville Center
Tue 11:06:24 PM 32.1447 -81.1997 205° Southwest 382 440 26,000  Level Jacksonville Center
Tue 11:07:24 PM 32.0431 -81.2383 198° South 381 438 26,000  Level Jacksonville Center
Tue 11:08:24 PM 31.9411 -81.2719 196° South 381 438 26,000  Level Jacksonville Center
Tue 11:09:24 PM 31.8497 -81.3053 197° South 374 430 26,000  Level Jacksonville Center
Tue 11:10:24 PM 31.7394 -81.3461 197° South 374 430 26,000  Level Jacksonville Center
Tue 11:11:24 PM 31.6500 -81.3769 196° South 375 432 26,000  Level Jacksonville Center
Tue 11:12:24 PM 31.5400 -81.4178 198° South 375 432 26,000  Level Jacksonville Center
Tue 11:13:24 PM 31.4403 -81.4533 197° South 375 432 26,000  Level Jacksonville Center
Tue 11:14:24 PM 31.3467 -81.4914 199° South 388 447 26,000 -150 Level Jacksonville Center
Tue 11:15:24 PM 31.2447 -81.5319 199° South 388 447 25,700 -700 Descending Jacksonville Center
Tue 11:16:24 PM 31.1450 -81.5672 197° South 388 447 24,600 -950 Descending Jacksonville Center
Tue 11:17:24 PM 31.0450 -81.6050 198° South 381 438 23,800 -1,050 Descending Jacksonville Center
Tue 11:18:24 PM 30.9472 -81.6428 198° South 381 438 22,500 -900 Descending Jacksonville Center
Tue 11:19:24 PM 30.8453 -81.6778 196° South 381 438 22,000 -250 Descending Jacksonville Center
Tue 11:20:24 PM 30.7414 -81.7178 198° South 386 444 22,000  Level Jacksonville Center
Tue 11:21:24 PM 30.6394 -81.7553 198° South 386 444 22,000  Level Jacksonville Center
Tue 11:22:24 PM 30.5289 -81.7928 196° South 374 430 22,000  Level Jacksonville Center
Tue 11:23:24 PM 30.4228 -81.8303 197° South 384 442 22,000  Level Jacksonville Center
Tue 11:24:24 PM 30.3250 -81.8697 199° South 384 442 22,000  Level Jacksonville Center
Tue 11:25:24 PM 30.2272 -81.9069 198° South 378 435 22,000 -450 Level Jacksonville Center
Tue 11:26:24 PM 30.1272 -81.9417 197° South 378 435 21,100 -2,000 Descending Jacksonville Center
Tue 11:27:24 PM 30.0294 -81.9761 197° South 378 435 18,000 -2,450 Descending Jacksonville Center
Tue 11:28:24 PM 29.9336 -82.0178 201° Southwest 384 442 16,200 -1,676 Descending Jacksonville Center
Tue 11:28:32 PM 29.9233 -82.0228 203° Southwest 330 380 16,100 -136 Descending Jacksonville Center
Tue 11:29:08 PM 29.8692 -82.0400 195° South 339 390 16,100 -231 Level Jacksonville Center
Tue 11:29:24 PM 29.8442 -82.0497 199° South 362 417 15,900 -1,672 Descending Jacksonville Center
Tue 11:30:09 PM 29.7753 -82.0742 197° South 346 398 14,400 -2,100 Descending Jacksonville Center
Tue 11:30:24 PM 29.7525 -82.0817 196° South 355 409 13,800 -2,600 Descending Jacksonville Center
Tue 11:31:09 PM 29.6794 -82.1086 198° South 368 423 11,800 -2,200 Descending Jacksonville Center
Tue 11:31:24 PM 29.6650 -82.1111 189° South 345 397 11,600 -2,164 Descending Jacksonville Center
Tue 11:32:10 PM 29.5858 -82.1428 199° South 311 358 9,600 -2,200 Descending Jacksonville Center
Tue 11:32:24 PM 29.5775 -82.1450 193° South 347 399 9,400 -1,869 Descending Jacksonville Center
Tue 11:33:11 PM 29.5108 -82.1742 201° Southwest 272 313 7,700 -1,900 Descending Jacksonville Center
Tue 11:33:24 PM 29.5025 -82.1719 167° South 316 364 7,500 -1,068 Descending Jacksonville Center
Tue 11:34:24 PM 29.4169 -82.2061 199° South 295 339 6,400 4,250 Descending Jacksonville Center
Tue 11:35:24 PM 29.3378 -82.2350 198° South 295 339 16,000 4,800 Climbing Jacksonville Center
Tue 11:36:24 PM 29.2608 -82.2667 200° South 295 339 16,000  Level Jacksonville Center
Tue 11:37:24 PM 29.1817 -82.2956 198° South 295 339 16,000  Level Jacksonville Center
Tue 11:38:24 PM 29.1358 -82.3150 200° South 295 339 16,000  Level Jacksonville Center

Login

Don't have an account? Register now (free) for customized features, flight alerts, and more!